Key West, FL

5:23 AM EDT en Octubre 23, 2014 (GMT -0400)
Key West International | Change Station
CLOSE
Current Station
Aeropuerto
Location: Key West,
Altura: 0 ft
Estaciones meteorológicas cercanas

Alt 0 ft 24.56 °N, 81.75 °W | Updated 19 minutes ago

Lluvia
Lluvia
76 ° F
Sensación térmica 76 ° F
N
10
Viento Variable Viento desde Este
Gusts 18 mph

Hoy
Alta -- | Baja -- ° F
--% Posibilidad de precipitaciones
Ayer
Alta -- | Baja -- ° F
Precip. -- pul
7:28 AM 6:53 PM
Creciente menguante, 0% visible
Presión 29.85 pul
Visibilidad 10.0 Millas
Nubes Muy nublado 1400 ft
Muy nublado 2100 ft
Nublado 3000 ft
Punto de rocío 75 ° F
Humedad 97%
Precipitaciones 0.07 pul
Espesor de la nieve No disponible.
UV 0 de una escala de 12
Polen 1.60 de una escala de 12
Calidad del aire No disponible.
Flu Activity Local Activity
SPECI KEYW 230904Z AUTO 08009G16KT 10SM -RA BKN014 BKN021 OVC030 24/24 A2985 RMK AO2 P0000 T02440239

More Conditions Fewer Conditions

Presión 29.85 pul
Visibilidad 10.0 Millas
Nubes Muy nublado 1400 ft
Muy nublado 2100 ft
Nublado 3000 ft
Punto de rocío 75 ° F
Humedad 97%
Precipitaciones 0.07 pul
Espesor de la nieve No disponible.
UV 0 de una escala de 12
Polen 1.60 de una escala de 12
Calidad del aire No disponible.
Flu Activity Local Activity
SPECI KEYW 230904Z AUTO 08009G16KT 10SM -RA BKN014 BKN021 OVC030 24/24 A2985 RMK AO2 P0000 T02440239

More Conditions Fewer Conditions

Nowcast | as of 4:36 am EDT on October 23, 2014

A large area of light to moderate rain will continue across the Florida Keys and surrounding near and offshore waters. All island locations will receive continued light to moderate rain. A few embedded showers and thunderstorms will be found...mainly along the outer Florida Straits...beyond 20 nm offshore. The stronger showers will produce wind gusts near 30 knots...blinding downpours...and a rare lightning strike.

×

10-Day Weather Forecast

Almanac

Astronomía

Oct. 23, 2014 Salida Puesta
Hora real 7:28 AM EDT 6:53 PM EDT
Crepúsculo civil 7:05 AM EDT 7:16 PM EDT
Crepúsculo náutico 6:39 AM EDT 7:43 PM EDT
Crepúsculo astronómico 6:12 AM EDT 8:09 PM EDT
Luna 7:09 AM EDT 6:54 PM EDT
Horas de luz 12h 10m
Horas de luz
11h 24m
Tomorrow will be 1m 20s shorter.
Creciente menguante, 0% of the Moon is Illuminated
Hoy
Creciente menguante
Oct 23
Nueva
Oct 30
Cuarto creciente
Nov 6
Luna llena
Nov 14
Cuarto menguante

Extremos de hoy

Máximos del estado Bajos del estado

Community

WunderPhotos

Upload Photos

1,764,199 ¡fotos cargadas!

Nearby

Grosos de nieve

Estación Profundido Altura
No tenemos constancia de nieve nueva.

Actividad de terremotos

Ciudad Distance Mag. Tiempo y dato
No hay informes recientes de la actividad sísmica.
Magnitud mínima muestra es 2,5.

Temperaturas de aguas costeras

Lugar Temperatura
Sin partes meteorológicos de las estaciones

Estaciones meteorológicas cercanas